sensor_id;sensor_type;location;lat;lon;timestamp;P1;durP1;ratioP1;P2;durP2;ratioP2
5585;SDS011;2815;54.094;12.112;2023-02-14T00:00:51;6.88;;;3.72;;
5585;SDS011;2815;54.094;12.112;2023-02-14T00:03:19;7.65;;;3.40;;
5585;SDS011;2815;54.094;12.112;2023-02-14T00:05:47;6.00;;;3.67;;
5585;SDS011;2815;54.094;12.112;2023-02-14T00:08:17;6.80;;;3.20;;
5585;SDS011;2815;54.094;12.112;2023-02-14T00:10:44;9.02;;;3.67;;
5585;SDS011;2815;54.094;12.112;2023-02-14T00:13:12;9.70;;;3.80;;
5585;SDS011;2815;54.094;12.112;2023-02-14T00:15:40;7.35;;;3.97;;
5585;SDS011;2815;54.094;12.112;2023-02-14T00:18:07;5.15;;;3.33;;
5585;SDS011;2815;54.094;12.112;2023-02-14T00:20:35;8.35;;;3.20;;
5585;SDS011;2815;54.094;12.112;2023-02-14T00:23:03;6.78;;;3.50;;
5585;SDS011;2815;54.094;12.112;2023-02-14T00:25:33;6.47;;;3.78;;
5585;SDS011;2815;54.094;12.112;2023-02-14T00:28:01;8.05;;;3.88;;
5585;SDS011;2815;54.094;12.112;2023-02-14T00:30:29;6.68;;;3.45;;
5585;SDS011;2815;54.094;12.112;2023-02-14T00:32:57;5.75;;;3.55;;
5585;SDS011;2815;54.094;12.112;2023-02-14T00:35:25;10.45;;;4.35;;
5585;SDS011;2815;54.094;12.112;2023-02-14T00:37:52;9.07;;;3.83;;
5585;SDS011;2815;54.094;12.112;2023-02-14T00:40:20;5.65;;;3.63;;
5585;SDS011;2815;54.094;12.112;2023-02-14T00:42:50;9.80;;;3.95;;
5585;SDS011;2815;54.094;12.112;2023-02-14T00:45:21;10.57;;;4.00;;
5585;SDS011;2815;54.094;12.112;2023-02-14T00:47:49;9.10;;;4.13;;
5585;SDS011;2815;54.094;12.112;2023-02-14T00:50:17;7.10;;;4.03;;
5585;SDS011;2815;54.094;12.112;2023-02-14T00:52:45;6.95;;;3.70;;
5585;SDS011;2815;54.094;12.112;2023-02-14T00:55:14;6.75;;;3.88;;
5585;SDS011;2815;54.094;12.112;2023-02-14T00:57:42;9.68;;;4.20;;
5585;SDS011;2815;54.094;12.112;2023-02-14T01:00:12;6.10;;;3.80;;
5585;SDS011;2815;54.094;12.112;2023-02-14T01:02:40;7.70;;;4.18;;
5585;SDS011;2815;54.094;12.112;2023-02-14T01:05:08;9.50;;;3.60;;
5585;SDS011;2815;54.094;12.112;2023-02-14T01:07:36;6.60;;;3.95;;
5585;SDS011;2815;54.094;12.112;2023-02-14T01:10:05;6.70;;;3.58;;
5585;SDS011;2815;54.094;12.112;2023-02-14T01:12:33;5.95;;;3.45;;
5585;SDS011;2815;54.094;12.112;2023-02-14T01:15:03;9.40;;;4.00;;
5585;SDS011;2815;54.094;12.112;2023-02-14T01:17:33;6.07;;;4.40;;
5585;SDS011;2815;54.094;12.112;2023-02-14T01:20:02;9.77;;;4.20;;
5585;SDS011;2815;54.094;12.112;2023-02-14T01:22:33;6.95;;;4.10;;
5585;SDS011;2815;54.094;12.112;2023-02-14T01:25:02;8.23;;;4.18;;
5585;SDS011;2815;54.094;12.112;2023-02-14T01:27:30;7.55;;;4.32;;
5585;SDS011;2815;54.094;12.112;2023-02-14T01:29:58;9.75;;;4.10;;
5585;SDS011;2815;54.094;12.112;2023-02-14T01:32:29;8.10;;;4.05;;
5585;SDS011;2815;54.094;12.112;2023-02-14T01:34:58;7.90;;;4.05;;
5585;SDS011;2815;54.094;12.112;2023-02-14T01:37:26;12.30;;;4.03;;
5585;SDS011;2815;54.094;12.112;2023-02-14T01:39:54;7.13;;;4.07;;
5585;SDS011;2815;54.094;12.112;2023-02-14T01:42:22;7.80;;;3.78;;
5585;SDS011;2815;54.094;12.112;2023-02-14T01:44:58;10.77;;;4.40;;
5585;SDS011;2815;54.094;12.112;2023-02-14T01:47:31;6.72;;;4.00;;
5585;SDS011;2815;54.094;12.112;2023-02-14T01:50:02;9.95;;;3.92;;
5585;SDS011;2815;54.094;12.112;2023-02-14T01:55:02;6.60;;;3.95;;
5585;SDS011;2815;54.094;12.112;2023-02-14T01:57:33;4.25;;;3.75;;
5585;SDS011;2815;54.094;12.112;2023-02-14T02:00:04;8.32;;;4.88;;
5585;SDS011;2815;54.094;12.112;2023-02-14T02:02:50;9.52;;;3.70;;
5585;SDS011;2815;54.094;12.112;2023-02-14T02:05:21;7.13;;;4.20;;
5585;SDS011;2815;54.094;12.112;2023-02-14T02:07:50;10.02;;;4.10;;
5585;SDS011;2815;54.094;12.112;2023-02-14T02:10:18;6.55;;;4.20;;
5585;SDS011;2815;54.094;12.112;2023-02-14T02:12:48;8.57;;;4.30;;
5585;SDS011;2815;54.094;12.112;2023-02-14T02:19:29;7.72;;;3.88;;
5585;SDS011;2815;54.094;12.112;2023-02-14T02:22:20;6.15;;;3.83;;
5585;SDS011;2815;54.094;12.112;2023-02-14T02:25:08;9.80;;;4.05;;
5585;SDS011;2815;54.094;12.112;2023-02-14T02:27:46;6.45;;;4.22;;
5585;SDS011;2815;54.094;12.112;2023-02-14T02:33:36;7.60;;;4.20;;
5585;SDS011;2815;54.094;12.112;2023-02-14T02:39:31;7.15;;;4.65;;
5585;SDS011;2815;54.094;12.112;2023-02-14T02:42:05;8.52;;;4.38;;
5585;SDS011;2815;54.094;12.112;2023-02-14T02:44:43;8.20;;;4.70;;
5585;SDS011;2815;54.094;12.112;2023-02-14T02:47:18;7.25;;;4.18;;
5585;SDS011;2815;54.094;12.112;2023-02-14T02:49:53;8.10;;;4.97;;
5585;SDS011;2815;54.094;12.112;2023-02-14T02:52:44;6.95;;;3.97;;
5585;SDS011;2815;54.094;12.112;2023-02-14T02:55:36;12.25;;;4.75;;
5585;SDS011;2815;54.094;12.112;2023-02-14T02:58:31;7.28;;;4.30;;
5585;SDS011;2815;54.094;12.112;2023-02-14T03:01:01;6.60;;;4.35;;
5585;SDS011;2815;54.094;12.112;2023-02-14T03:03:32;7.32;;;4.13;;
5585;SDS011;2815;54.094;12.112;2023-02-14T03:06:19;7.45;;;4.35;;
5585;SDS011;2815;54.094;12.112;2023-02-14T03:08:47;7.47;;;4.18;;
5585;SDS011;2815;54.094;12.112;2023-02-14T03:11:16;9.25;;;4.63;;
5585;SDS011;2815;54.094;12.112;2023-02-14T03:16:38;8.45;;;4.35;;
5585;SDS011;2815;54.094;12.112;2023-02-14T03:19:28;9.57;;;4.75;;
5585;SDS011;2815;54.094;12.112;2023-02-14T03:22:04;5.15;;;3.38;;
5585;SDS011;2815;54.094;12.112;2023-02-14T03:24:38;8.80;;;4.47;;
5585;SDS011;2815;54.094;12.112;2023-02-14T03:27:13;6.68;;;4.38;;
5585;SDS011;2815;54.094;12.112;2023-02-14T03:29:55;7.40;;;4.43;;
5585;SDS011;2815;54.094;12.112;2023-02-14T03:32:27;7.45;;;4.45;;
5585;SDS011;2815;54.094;12.112;2023-02-14T03:35:04;6.90;;;4.15;;
5585;SDS011;2815;54.094;12.112;2023-02-14T03:37:39;11.23;;;4.20;;
5585;SDS011;2815;54.094;12.112;2023-02-14T03:40:12;10.30;;;3.75;;
5585;SDS011;2815;54.094;12.112;2023-02-14T03:42:45;7.60;;;4.40;;
5585;SDS011;2815;54.094;12.112;2023-02-14T03:45:18;8.57;;;4.82;;
5585;SDS011;2815;54.094;12.112;2023-02-14T03:47:49;10.13;;;4.05;;
5585;SDS011;2815;54.094;12.112;2023-02-14T03:50:18;6.82;;;4.47;;
5585;SDS011;2815;54.094;12.112;2023-02-14T03:52:47;7.03;;;4.15;;
5585;SDS011;2815;54.094;12.112;2023-02-14T03:55:21;7.25;;;4.30;;
5585;SDS011;2815;54.094;12.112;2023-02-14T03:57:54;7.82;;;4.53;;
5585;SDS011;2815;54.094;12.112;2023-02-14T04:00:26;10.50;;;4.70;;
5585;SDS011;2815;54.094;12.112;2023-02-14T04:02:57;8.50;;;4.80;;
5585;SDS011;2815;54.094;12.112;2023-02-14T04:05:27;10.43;;;4.70;;
5585;SDS011;2815;54.094;12.112;2023-02-14T04:07:56;7.10;;;4.47;;
5585;SDS011;2815;54.094;12.112;2023-02-14T04:10:25;10.80;;;4.72;;
5585;SDS011;2815;54.094;12.112;2023-02-14T04:12:54;9.57;;;4.82;;
5585;SDS011;2815;54.094;12.112;2023-02-14T04:15:22;9.20;;;4.63;;
5585;SDS011;2815;54.094;12.112;2023-02-14T04:17:50;8.40;;;4.80;;
5585;SDS011;2815;54.094;12.112;2023-02-14T04:20:35;8.15;;;4.53;;
5585;SDS011;2815;54.094;12.112;2023-02-14T04:23:03;11.98;;;5.90;;
5585;SDS011;2815;54.094;12.112;2023-02-14T04:25:31;9.80;;;5.07;;
5585;SDS011;2815;54.094;12.112;2023-02-14T04:28:00;10.68;;;5.55;;
5585;SDS011;2815;54.094;12.112;2023-02-14T04:30:28;10.93;;;5.50;;
5585;SDS011;2815;54.094;12.112;2023-02-14T04:32:56;13.57;;;5.55;;
5585;SDS011;2815;54.094;12.112;2023-02-14T04:35:24;8.98;;;5.75;;
5585;SDS011;2815;54.094;12.112;2023-02-14T04:37:52;15.10;;;5.85;;
5585;SDS011;2815;54.094;12.112;2023-02-14T04:40:20;12.05;;;6.18;;
5585;SDS011;2815;54.094;12.112;2023-02-14T04:42:48;11.95;;;6.07;;
5585;SDS011;2815;54.094;12.112;2023-02-14T04:45:17;9.32;;;5.70;;
5585;SDS011;2815;54.094;12.112;2023-02-14T04:47:45;13.48;;;6.07;;
5585;SDS011;2815;54.094;12.112;2023-02-14T04:50:13;10.10;;;5.65;;
5585;SDS011;2815;54.094;12.112;2023-02-14T04:52:41;12.18;;;5.93;;
5585;SDS011;2815;54.094;12.112;2023-02-14T04:55:09;9.70;;;5.80;;
5585;SDS011;2815;54.094;12.112;2023-02-14T04:57:37;12.85;;;6.55;;
5585;SDS011;2815;54.094;12.112;2023-02-14T05:00:05;12.55;;;5.93;;
5585;SDS011;2815;54.094;12.112;2023-02-14T05:02:35;10.35;;;5.72;;
5585;SDS011;2815;54.094;12.112;2023-02-14T05:05:04;10.00;;;5.57;;
5585;SDS011;2815;54.094;12.112;2023-02-14T05:07:32;15.60;;;6.00;;
5585;SDS011;2815;54.094;12.112;2023-02-14T05:10:00;10.90;;;6.45;;
5585;SDS011;2815;54.094;12.112;2023-02-14T05:12:28;15.70;;;7.38;;
5585;SDS011;2815;54.094;12.112;2023-02-14T05:14:55;12.77;;;6.28;;
5585;SDS011;2815;54.094;12.112;2023-02-14T05:17:23;12.23;;;6.45;;
5585;SDS011;2815;54.094;12.112;2023-02-14T05:19:53;12.80;;;7.05;;
5585;SDS011;2815;54.094;12.112;2023-02-14T05:22:21;11.45;;;6.90;;
5585;SDS011;2815;54.094;12.112;2023-02-14T05:24:48;15.32;;;6.50;;
5585;SDS011;2815;54.094;12.112;2023-02-14T05:27:18;13.25;;;6.43;;
5585;SDS011;2815;54.094;12.112;2023-02-14T05:30:05;14.63;;;6.68;;
5585;SDS011;2815;54.094;12.112;2023-02-14T05:32:53;12.52;;;6.97;;
5585;SDS011;2815;54.094;12.112;2023-02-14T05:35:23;14.07;;;6.97;;
5585;SDS011;2815;54.094;12.112;2023-02-14T05:37:50;14.32;;;7.38;;
5585;SDS011;2815;54.094;12.112;2023-02-14T05:40:18;15.63;;;7.82;;
5585;SDS011;2815;54.094;12.112;2023-02-14T05:42:47;15.57;;;7.68;;
5585;SDS011;2815;54.094;12.112;2023-02-14T05:45:15;13.75;;;6.88;;
5585;SDS011;2815;54.094;12.112;2023-02-14T05:55:44;13.70;;;6.90;;
5585;SDS011;2815;54.094;12.112;2023-02-14T05:58:12;14.10;;;7.07;;
5585;SDS011;2815;54.094;12.112;2023-02-14T06:00:40;17.83;;;8.20;;
5585;SDS011;2815;54.094;12.112;2023-02-14T06:03:07;21.35;;;8.90;;
5585;SDS011;2815;54.094;12.112;2023-02-14T06:05:35;21.02;;;8.95;;
5585;SDS011;2815;54.094;12.112;2023-02-14T06:08:03;20.05;;;9.52;;
5585;SDS011;2815;54.094;12.112;2023-02-14T06:10:31;17.02;;;8.38;;
5585;SDS011;2815;54.094;12.112;2023-02-14T06:13:00;18.58;;;8.48;;
5585;SDS011;2815;54.094;12.112;2023-02-14T06:15:28;18.88;;;8.77;;
5585;SDS011;2815;54.094;12.112;2023-02-14T06:17:56;18.90;;;9.80;;
5585;SDS011;2815;54.094;12.112;2023-02-14T06:20:24;21.23;;;9.25;;
5585;SDS011;2815;54.094;12.112;2023-02-14T06:22:53;17.25;;;9.32;;
5585;SDS011;2815;54.094;12.112;2023-02-14T06:25:21;18.40;;;9.48;;
5585;SDS011;2815;54.094;12.112;2023-02-14T06:27:49;21.15;;;9.45;;
5585;SDS011;2815;54.094;12.112;2023-02-14T06:30:19;24.63;;;10.32;;
5585;SDS011;2815;54.094;12.112;2023-02-14T06:32:47;24.30;;;10.98;;
5585;SDS011;2815;54.094;12.112;2023-02-14T06:35:15;29.00;;;11.18;;
5585;SDS011;2815;54.094;12.112;2023-02-14T06:37:43;24.33;;;10.80;;
5585;SDS011;2815;54.094;12.112;2023-02-14T06:40:12;37.03;;;12.60;;
5585;SDS011;2815;54.094;12.112;2023-02-14T06:42:40;32.25;;;13.15;;
5585;SDS011;2815;54.094;12.112;2023-02-14T06:45:08;31.50;;;13.13;;
5585;SDS011;2815;54.094;12.112;2023-02-14T06:47:38;32.97;;;13.05;;
5585;SDS011;2815;54.094;12.112;2023-02-14T06:50:06;41.88;;;13.95;;
5585;SDS011;2815;54.094;12.112;2023-02-14T06:52:37;132.43;;;25.38;;
5585;SDS011;2815;54.094;12.112;2023-02-14T06:55:05;60.90;;;15.93;;
5585;SDS011;2815;54.094;12.112;2023-02-14T06:57:34;76.82;;;20.15;;
5585;SDS011;2815;54.094;12.112;2023-02-14T07:00:02;45.75;;;14.77;;
5585;SDS011;2815;54.094;12.112;2023-02-14T07:02:31;49.17;;;15.43;;
5585;SDS011;2815;54.094;12.112;2023-02-14T07:05:03;39.63;;;14.10;;
5585;SDS011;2815;54.094;12.112;2023-02-14T07:07:31;29.73;;;11.90;;
5585;SDS011;2815;54.094;12.112;2023-02-14T07:09:59;39.45;;;14.43;;
5585;SDS011;2815;54.094;12.112;2023-02-14T07:12:27;38.13;;;13.52;;
5585;SDS011;2815;54.094;12.112;2023-02-14T07:14:55;37.03;;;14.23;;
5585;SDS011;2815;54.094;12.112;2023-02-14T07:17:23;43.25;;;14.63;;
5585;SDS011;2815;54.094;12.112;2023-02-14T07:19:51;41.38;;;14.55;;
5585;SDS011;2815;54.094;12.112;2023-02-14T07:22:20;38.80;;;14.40;;
5585;SDS011;2815;54.094;12.112;2023-02-14T07:24:48;41.00;;;15.80;;
5585;SDS011;2815;54.094;12.112;2023-02-14T07:27:16;36.75;;;13.52;;
5585;SDS011;2815;54.094;12.112;2023-02-14T07:29:44;42.85;;;15.52;;
5585;SDS011;2815;54.094;12.112;2023-02-14T07:32:12;38.45;;;13.77;;
5585;SDS011;2815;54.094;12.112;2023-02-14T07:34:40;36.40;;;14.88;;
5585;SDS011;2815;54.094;12.112;2023-02-14T07:37:07;35.08;;;14.25;;
5585;SDS011;2815;54.094;12.112;2023-02-14T07:39:37;40.83;;;13.82;;
5585;SDS011;2815;54.094;12.112;2023-02-14T07:42:05;43.58;;;14.05;;
5585;SDS011;2815;54.094;12.112;2023-02-14T07:44:34;40.83;;;14.55;;
5585;SDS011;2815;54.094;12.112;2023-02-14T07:47:01;41.05;;;14.85;;
5585;SDS011;2815;54.094;12.112;2023-02-14T07:49:30;44.72;;;14.35;;
5585;SDS011;2815;54.094;12.112;2023-02-14T07:51:57;46.35;;;14.65;;
5585;SDS011;2815;54.094;12.112;2023-02-14T07:54:25;36.65;;;12.23;;
5585;SDS011;2815;54.094;12.112;2023-02-14T07:56:55;40.55;;;14.10;;
5585;SDS011;2815;54.094;12.112;2023-02-14T07:59:23;43.38;;;14.23;;
5585;SDS011;2815;54.094;12.112;2023-02-14T08:01:51;40.75;;;14.80;;
5585;SDS011;2815;54.094;12.112;2023-02-14T08:04:19;34.85;;;13.32;;
5585;SDS011;2815;54.094;12.112;2023-02-14T08:06:51;40.90;;;14.70;;
5585;SDS011;2815;54.094;12.112;2023-02-14T08:09:19;33.90;;;12.88;;
5585;SDS011;2815;54.094;12.112;2023-02-14T08:11:53;39.88;;;14.00;;
5585;SDS011;2815;54.094;12.112;2023-02-14T08:14:42;45.47;;;14.85;;
5585;SDS011;2815;54.094;12.112;2023-02-14T08:17:10;39.70;;;14.77;;
5585;SDS011;2815;54.094;12.112;2023-02-14T08:19:38;44.63;;;16.48;;
5585;SDS011;2815;54.094;12.112;2023-02-14T08:22:06;42.65;;;15.20;;
5585;SDS011;2815;54.094;12.112;2023-02-14T08:24:34;51.05;;;17.05;;
5585;SDS011;2815;54.094;12.112;2023-02-14T08:27:04;38.70;;;14.77;;
5585;SDS011;2815;54.094;12.112;2023-02-14T08:29:32;41.55;;;15.57;;
5585;SDS011;2815;54.094;12.112;2023-02-14T08:31:59;35.97;;;13.30;;
5585;SDS011;2815;54.094;12.112;2023-02-14T08:34:28;40.10;;;14.07;;
5585;SDS011;2815;54.094;12.112;2023-02-14T08:36:55;35.50;;;14.43;;
5585;SDS011;2815;54.094;12.112;2023-02-14T08:39:23;43.28;;;15.30;;
5585;SDS011;2815;54.094;12.112;2023-02-14T08:41:51;40.92;;;15.00;;
5585;SDS011;2815;54.094;12.112;2023-02-14T08:44:22;36.47;;;13.70;;
5585;SDS011;2815;54.094;12.112;2023-02-14T08:46:50;41.80;;;15.43;;
5585;SDS011;2815;54.094;12.112;2023-02-14T08:49:19;35.53;;;14.35;;
5585;SDS011;2815;54.094;12.112;2023-02-14T08:51:47;33.70;;;14.65;;
5585;SDS011;2815;54.094;12.112;2023-02-14T08:54:15;41.22;;;16.63;;
5585;SDS011;2815;54.094;12.112;2023-02-14T08:56:42;36.38;;;14.40;;
5585;SDS011;2815;54.094;12.112;2023-02-14T08:59:10;37.03;;;14.15;;
5585;SDS011;2815;54.094;12.112;2023-02-14T09:01:40;42.03;;;16.38;;
5585;SDS011;2815;54.094;12.112;2023-02-14T09:04:08;41.22;;;15.30;;
5585;SDS011;2815;54.094;12.112;2023-02-14T09:06:36;40.05;;;15.32;;
5585;SDS011;2815;54.094;12.112;2023-02-14T09:09:04;42.40;;;14.75;;
5585;SDS011;2815;54.094;12.112;2023-02-14T09:11:32;42.38;;;15.57;;
5585;SDS011;2815;54.094;12.112;2023-02-14T09:14:01;40.83;;;15.82;;
5585;SDS011;2815;54.094;12.112;2023-02-14T09:16:29;42.60;;;14.88;;
5585;SDS011;2815;54.094;12.112;2023-02-14T09:18:59;34.13;;;14.38;;
5585;SDS011;2815;54.094;12.112;2023-02-14T09:21:27;39.08;;;15.70;;
5585;SDS011;2815;54.094;12.112;2023-02-14T09:23:55;44.67;;;16.67;;
5585;SDS011;2815;54.094;12.112;2023-02-14T09:26:23;43.13;;;15.15;;
5585;SDS011;2815;54.094;12.112;2023-02-14T09:28:51;34.28;;;13.93;;
5585;SDS011;2815;54.094;12.112;2023-02-14T09:31:20;42.92;;;16.10;;
5585;SDS011;2815;54.094;12.112;2023-02-14T09:33:49;42.90;;;16.27;;
5585;SDS011;2815;54.094;12.112;2023-02-14T09:36:19;39.35;;;15.48;;
5585;SDS011;2815;54.094;12.112;2023-02-14T09:38:47;38.75;;;15.13;;
5585;SDS011;2815;54.094;12.112;2023-02-14T09:41:20;40.03;;;15.55;;
5585;SDS011;2815;54.094;12.112;2023-02-14T09:44:00;36.58;;;15.10;;
5585;SDS011;2815;54.094;12.112;2023-02-14T09:46:29;32.65;;;13.07;;
5585;SDS011;2815;54.094;12.112;2023-02-14T09:49:00;39.78;;;16.30;;
5585;SDS011;2815;54.094;12.112;2023-02-14T09:51:30;38.92;;;15.07;;
5585;SDS011;2815;54.094;12.112;2023-02-14T09:53:59;38.65;;;15.75;;
5585;SDS011;2815;54.094;12.112;2023-02-14T09:56:30;41.63;;;16.98;;
5585;SDS011;2815;54.094;12.112;2023-02-14T09:59:18;39.05;;;15.07;;
5585;SDS011;2815;54.094;12.112;2023-02-14T10:01:51;40.92;;;15.55;;
5585;SDS011;2815;54.094;12.112;2023-02-14T10:04:24;43.33;;;16.50;;
5585;SDS011;2815;54.094;12.112;2023-02-14T10:06:57;39.93;;;15.77;;
5585;SDS011;2815;54.094;12.112;2023-02-14T10:09:36;38.70;;;14.98;;
5585;SDS011;2815;54.094;12.112;2023-02-14T10:12:22;40.33;;;15.88;;
5585;SDS011;2815;54.094;12.112;2023-02-14T10:14:51;44.65;;;15.88;;
5585;SDS011;2815;54.094;12.112;2023-02-14T10:17:21;42.88;;;16.45;;
5585;SDS011;2815;54.094;12.112;2023-02-14T10:19:53;41.80;;;16.05;;
5585;SDS011;2815;54.094;12.112;2023-02-14T10:22:26;47.50;;;17.27;;
5585;SDS011;2815;54.094;12.112;2023-02-14T10:24:59;46.80;;;17.50;;
5585;SDS011;2815;54.094;12.112;2023-02-14T10:27:31;35.45;;;14.00;;
5585;SDS011;2815;54.094;12.112;2023-02-14T10:30:00;44.47;;;16.40;;
5585;SDS011;2815;54.094;12.112;2023-02-14T10:32:29;32.28;;;13.82;;
5585;SDS011;2815;54.094;12.112;2023-02-14T10:35:03;38.35;;;16.08;;
5585;SDS011;2815;54.094;12.112;2023-02-14T10:37:39;40.97;;;15.90;;
5585;SDS011;2815;54.094;12.112;2023-02-14T10:40:27;40.75;;;16.40;;
5585;SDS011;2815;54.094;12.112;2023-02-14T10:43:05;48.30;;;17.48;;
5585;SDS011;2815;54.094;12.112;2023-02-14T10:45:42;44.78;;;16.98;;
5585;SDS011;2815;54.094;12.112;2023-02-14T10:48:16;36.88;;;15.07;;
5585;SDS011;2815;54.094;12.112;2023-02-14T10:50:49;39.45;;;15.00;;
5585;SDS011;2815;54.094;12.112;2023-02-14T10:53:22;43.40;;;16.13;;
5585;SDS011;2815;54.094;12.112;2023-02-14T10:55:55;43.88;;;15.40;;
5585;SDS011;2815;54.094;12.112;2023-02-14T11:00:57;42.95;;;15.60;;
5585;SDS011;2815;54.094;12.112;2023-02-14T11:03:28;35.25;;;14.00;;
5585;SDS011;2815;54.094;12.112;2023-02-14T11:05:56;39.38;;;15.85;;
5585;SDS011;2815;54.094;12.112;2023-02-14T11:08:26;44.00;;;15.43;;
5585;SDS011;2815;54.094;12.112;2023-02-14T11:10:58;38.90;;;15.55;;
5585;SDS011;2815;54.094;12.112;2023-02-14T11:13:30;38.30;;;15.40;;
5585;SDS011;2815;54.094;12.112;2023-02-14T11:16:01;43.17;;;16.38;;
5585;SDS011;2815;54.094;12.112;2023-02-14T11:18:31;41.30;;;16.10;;
5585;SDS011;2815;54.094;12.112;2023-02-14T11:21:03;40.67;;;16.35;;
5585;SDS011;2815;54.094;12.112;2023-02-14T11:23:35;41.13;;;15.75;;
5585;SDS011;2815;54.094;12.112;2023-02-14T11:26:08;40.55;;;15.77;;
5585;SDS011;2815;54.094;12.112;2023-02-14T11:28:46;37.95;;;15.35;;
5585;SDS011;2815;54.094;12.112;2023-02-14T11:31:27;50.70;;;17.70;;
5585;SDS011;2815;54.094;12.112;2023-02-14T11:33:58;38.72;;;15.82;;
5585;SDS011;2815;54.094;12.112;2023-02-14T11:36:30;48.72;;;16.75;;
5585;SDS011;2815;54.094;12.112;2023-02-14T11:39:02;39.20;;;16.20;;
5585;SDS011;2815;54.094;12.112;2023-02-14T11:41:46;39.53;;;15.43;;
5585;SDS011;2815;54.094;12.112;2023-02-14T11:44:16;39.10;;;14.82;;
5585;SDS011;2815;54.094;12.112;2023-02-14T11:46:48;37.22;;;15.00;;
5585;SDS011;2815;54.094;12.112;2023-02-14T11:49:29;43.25;;;16.48;;
5585;SDS011;2815;54.094;12.112;2023-02-14T11:51:58;42.33;;;15.15;;
5585;SDS011;2815;54.094;12.112;2023-02-14T11:54:31;36.67;;;14.10;;
5585;SDS011;2815;54.094;12.112;2023-02-14T11:57:01;42.05;;;15.30;;
5585;SDS011;2815;54.094;12.112;2023-02-14T11:59:34;31.95;;;14.07;;
5585;SDS011;2815;54.094;12.112;2023-02-14T12:02:11;23.10;;;9.50;;
5585;SDS011;2815;54.094;12.112;2023-02-14T12:04:44;29.50;;;11.05;;
5585;SDS011;2815;54.094;12.112;2023-02-14T12:07:16;34.95;;;13.75;;
5585;SDS011;2815;54.094;12.112;2023-02-14T12:09:48;32.38;;;13.77;;
5585;SDS011;2815;54.094;12.112;2023-02-14T12:12:33;38.35;;;14.60;;
5585;SDS011;2815;54.094;12.112;2023-02-14T12:15:11;36.10;;;14.45;;
5585;SDS011;2815;54.094;12.112;2023-02-14T12:17:50;40.28;;;14.43;;
5585;SDS011;2815;54.094;12.112;2023-02-14T12:20:22;39.72;;;13.75;;
5585;SDS011;2815;54.094;12.112;2023-02-14T12:22:55;34.53;;;13.95;;
5585;SDS011;2815;54.094;12.112;2023-02-14T12:25:31;37.58;;;13.85;;
5585;SDS011;2815;54.094;12.112;2023-02-14T12:28:08;40.70;;;15.23;;
5585;SDS011;2815;54.094;12.112;2023-02-14T12:33:08;37.00;;;13.90;;
5585;SDS011;2815;54.094;12.112;2023-02-14T12:35:44;33.80;;;14.05;;
5585;SDS011;2815;54.094;12.112;2023-02-14T12:38:18;35.90;;;14.10;;
5585;SDS011;2815;54.094;12.112;2023-02-14T12:40:56;32.95;;;13.48;;
5585;SDS011;2815;54.094;12.112;2023-02-14T12:43:41;30.02;;;12.27;;
5585;SDS011;2815;54.094;12.112;2023-02-14T12:46:31;35.55;;;13.65;;
5585;SDS011;2815;54.094;12.112;2023-02-14T12:52:03;38.42;;;15.35;;
5585;SDS011;2815;54.094;12.112;2023-02-14T12:54:45;35.03;;;14.05;;
5585;SDS011;2815;54.094;12.112;2023-02-14T12:57:23;34.28;;;13.90;;
5585;SDS011;2815;54.094;12.112;2023-02-14T13:00:00;36.83;;;14.40;;
5585;SDS011;2815;54.094;12.112;2023-02-14T13:02:47;35.38;;;15.07;;
5585;SDS011;2815;54.094;12.112;2023-02-14T13:05:25;36.28;;;14.20;;
5585;SDS011;2815;54.094;12.112;2023-02-14T13:08:05;34.92;;;13.95;;
5585;SDS011;2815;54.094;12.112;2023-02-14T13:10:43;36.47;;;13.63;;
5585;SDS011;2815;54.094;12.112;2023-02-14T13:13:20;35.15;;;14.15;;
5585;SDS011;2815;54.094;12.112;2023-02-14T13:15:54;36.15;;;13.88;;
5585;SDS011;2815;54.094;12.112;2023-02-14T13:18:31;34.17;;;13.45;;
5585;SDS011;2815;54.094;12.112;2023-02-14T13:21:05;32.75;;;13.20;;
5585;SDS011;2815;54.094;12.112;2023-02-14T13:23:36;32.90;;;13.15;;
5585;SDS011;2815;54.094;12.112;2023-02-14T13:26:07;37.38;;;13.32;;
5585;SDS011;2815;54.094;12.112;2023-02-14T13:28:39;36.72;;;14.15;;
5585;SDS011;2815;54.094;12.112;2023-02-14T13:31:11;34.17;;;13.48;;
5585;SDS011;2815;54.094;12.112;2023-02-14T13:33:41;35.03;;;14.10;;
5585;SDS011;2815;54.094;12.112;2023-02-14T13:36:11;37.50;;;15.27;;
5585;SDS011;2815;54.094;12.112;2023-02-14T13:38:41;32.35;;;13.73;;
5585;SDS011;2815;54.094;12.112;2023-02-14T13:41:11;35.47;;;13.60;;
5585;SDS011;2815;54.094;12.112;2023-02-14T13:43:54;38.83;;;13.57;;
5585;SDS011;2815;54.094;12.112;2023-02-14T13:49:24;34.20;;;13.43;;
5585;SDS011;2815;54.094;12.112;2023-02-14T13:51:55;36.25;;;14.20;;
5585;SDS011;2815;54.094;12.112;2023-02-14T13:54:29;34.28;;;12.80;;
5585;SDS011;2815;54.094;12.112;2023-02-14T13:56:58;35.17;;;12.98;;
5585;SDS011;2815;54.094;12.112;2023-02-14T13:59:29;35.05;;;13.30;;
5585;SDS011;2815;54.094;12.112;2023-02-14T14:04:57;38.83;;;13.00;;
5585;SDS011;2815;54.094;12.112;2023-02-14T14:07:25;32.45;;;13.02;;
5585;SDS011;2815;54.094;12.112;2023-02-14T14:09:57;32.28;;;13.25;;
5585;SDS011;2815;54.094;12.112;2023-02-14T14:12:42;34.42;;;13.40;;
5585;SDS011;2815;54.094;12.112;2023-02-14T14:15:13;33.60;;;11.40;;
5585;SDS011;2815;54.094;12.112;2023-02-14T14:17:45;33.33;;;11.43;;
5585;SDS011;2815;54.094;12.112;2023-02-14T14:22:57;28.77;;;11.57;;
5585;SDS011;2815;54.094;12.112;2023-02-14T14:25:30;30.50;;;12.07;;
5585;SDS011;2815;54.094;12.112;2023-02-14T14:27:58;26.27;;;11.52;;
5585;SDS011;2815;54.094;12.112;2023-02-14T14:30:28;32.53;;;12.68;;
5585;SDS011;2815;54.094;12.112;2023-02-14T14:33:11;30.48;;;13.05;;
5585;SDS011;2815;54.094;12.112;2023-02-14T14:35:39;32.63;;;12.55;;
5585;SDS011;2815;54.094;12.112;2023-02-14T14:38:18;25.85;;;11.18;;
5585;SDS011;2815;54.094;12.112;2023-02-14T14:40:46;32.05;;;12.88;;
5585;SDS011;2815;54.094;12.112;2023-02-14T14:43:15;32.15;;;12.68;;
5585;SDS011;2815;54.094;12.112;2023-02-14T14:45:50;31.42;;;11.43;;
5585;SDS011;2815;54.094;12.112;2023-02-14T14:48:25;29.80;;;12.10;;
5585;SDS011;2815;54.094;12.112;2023-02-14T14:50:55;31.92;;;12.80;;
5585;SDS011;2815;54.094;12.112;2023-02-14T14:53:25;30.23;;;11.95;;
5585;SDS011;2815;54.094;12.112;2023-02-14T14:55:55;29.75;;;12.75;;
5585;SDS011;2815;54.094;12.112;2023-02-14T14:58:33;36.20;;;14.15;;
5585;SDS011;2815;54.094;12.112;2023-02-14T15:01:04;31.48;;;12.52;;
5585;SDS011;2815;54.094;12.112;2023-02-14T15:03:34;33.22;;;13.25;;
5585;SDS011;2815;54.094;12.112;2023-02-14T15:06:07;31.83;;;11.70;;
5585;SDS011;2815;54.094;12.112;2023-02-14T15:08:40;31.35;;;12.95;;
5585;SDS011;2815;54.094;12.112;2023-02-14T15:11:08;33.03;;;13.10;;
5585;SDS011;2815;54.094;12.112;2023-02-14T15:13:39;31.98;;;12.80;;
5585;SDS011;2815;54.094;12.112;2023-02-14T15:16:21;33.03;;;11.82;;
5585;SDS011;2815;54.094;12.112;2023-02-14T15:18:52;31.15;;;12.35;;
5585;SDS011;2815;54.094;12.112;2023-02-14T15:21:22;29.98;;;12.48;;
5585;SDS011;2815;54.094;12.112;2023-02-14T15:23:50;30.95;;;12.38;;
5585;SDS011;2815;54.094;12.112;2023-02-14T15:26:21;33.95;;;12.65;;
5585;SDS011;2815;54.094;12.112;2023-02-14T15:28:56;28.85;;;12.35;;
5585;SDS011;2815;54.094;12.112;2023-02-14T15:31:28;32.22;;;13.02;;
5585;SDS011;2815;54.094;12.112;2023-02-14T15:33:57;34.75;;;13.07;;
5585;SDS011;2815;54.094;12.112;2023-02-14T15:36:28;25.95;;;11.68;;
5585;SDS011;2815;54.094;12.112;2023-02-14T15:38:56;37.08;;;12.95;;
5585;SDS011;2815;54.094;12.112;2023-02-14T15:41:26;29.38;;;12.38;;
5585;SDS011;2815;54.094;12.112;2023-02-14T15:43:54;32.33;;;12.70;;
5585;SDS011;2815;54.094;12.112;2023-02-14T15:46:29;31.13;;;12.02;;
5585;SDS011;2815;54.094;12.112;2023-02-14T15:49:00;32.42;;;13.18;;